Time;durP1;ratioP1;P1;durP2;ratioP2;P2;SDS_P1;SDS_P2;PMS_P1;PMS_P2;Temp;Humidity;BMP_temperature;BMP_pressure;BME280_temperature;BME280_humidity;BME280_pressure;Samples;Min_cycle;Max_cycle;Signal;HPM_P1;HPM_P2
2022/02/22 00:00:11;;;;;;;15.10;3.80;;;6.60;99.90;;;;;;5039182;28;20435;-79
2022/02/22 00:02:37;;;;;;;13.30;3.80;;;6.60;99.90;;;;;;5038361;28;20510;-79
2022/02/22 00:05:03;;;;;;;15.50;2.73;;;6.50;99.90;;;;;;5038161;28;20526;-78
2022/02/22 00:07:29;;;;;;;16.23;3.63;;;6.50;99.90;;;;;;5037109;28;20522;-79
2022/02/22 00:09:56;;;;;;;14.30;4.10;;;6.40;99.90;;;;;;5039226;28;20445;-79
2022/02/22 00:12:22;;;;;;;9.37;3.33;;;6.40;99.90;;;;;;5038610;28;20425;-79
2022/02/22 00:14:48;;;;;;;12.70;3.00;;;6.40;99.90;;;;;;5039187;28;20529;-79
2022/02/22 00:17:14;;;;;;;18.50;4.13;;;6.40;99.90;;;;;;5037881;28;20446;-78
2022/02/22 00:19:40;;;;;;;12.57;4.77;;;6.30;99.90;;;;;;5039621;28;20427;-78
2022/02/22 00:22:06;;;;;;;19.70;5.20;;;6.30;99.90;;;;;;5038851;28;20431;-78
2022/02/22 00:24:33;;;;;;;13.07;3.37;;;6.30;99.90;;;;;;5037614;28;20530;-79
2022/02/22 00:26:59;;;;;;;12.43;3.60;;;6.30;99.90;;;;;;5038132;28;20787;-78
2022/02/22 00:29:25;;;;;;;23.63;3.70;;;6.30;99.90;;;;;;5038334;28;20411;-79
2022/02/22 00:31:51;;;;;;;16.77;7.37;;;6.30;99.90;;;;;;5037610;28;20791;-79
2022/02/22 00:34:17;;;;;;;17.40;3.97;;;6.30;99.90;;;;;;5037318;28;20287;-78
2022/02/22 00:36:44;;;;;;;14.83;5.03;;;6.20;99.90;;;;;;5037648;28;20443;-79
2022/02/22 00:39:10;;;;;;;9.50;3.53;;;6.30;99.90;;;;;;5037692;28;20469;-79
2022/02/22 00:41:37;;;;;;;14.60;5.03;;;6.40;99.90;;;;;;5037540;28;20465;-79
2022/02/22 00:44:03;;;;;;;21.53;3.70;;;6.40;99.90;;;;;;5038240;28;20510;-79
2022/02/22 00:46:29;;;;;;;21.67;3.40;;;6.40;99.90;;;;;;5037347;28;20481;-79
2022/02/22 00:48:56;;;;;;;10.57;2.80;;;6.40;99.90;;;;;;5037428;28;20492;-79
2022/02/22 00:51:21;;;;;;;10.77;4.13;;;6.40;99.90;;;;;;5037032;28;20792;-78
2022/02/22 00:53:48;;;;;;;14.17;3.60;;;6.40;99.90;;;;;;5037659;28;20414;-78
2022/02/22 00:56:14;;;;;;;13.83;4.23;;;6.40;99.90;;;;;;5037175;28;20238;-78
2022/02/22 00:58:40;;;;;;;8.63;2.63;;;6.50;99.90;;;;;;5037297;28;20427;-79
2022/02/22 01:01:05;;;;;;;22.63;4.03;;;6.50;99.90;;;;;;5036836;28;20187;-79
2022/02/22 01:03:31;;;;;;;14.83;3.53;;;6.50;99.90;;;;;;5037735;28;20191;-79
2022/02/22 01:05:57;;;;;;;10.23;3.40;;;6.60;99.90;;;;;;5036399;28;20219;-79
2022/02/22 01:08:23;;;;;;;19.57;3.70;;;6.60;99.90;;;;;;5038831;28;20199;-80
2022/02/22 01:10:49;;;;;;;11.60;3.37;;;6.60;99.90;;;;;;5036746;28;20196;-79
2022/02/22 01:13:14;;;;;;;13.63;3.83;;;6.50;99.90;;;;;;5037269;28;20562;-79
2022/02/22 01:15:41;;;;;;;14.60;3.70;;;6.40;99.90;;;;;;5043770;28;20254;-80
2022/02/22 01:18:07;;;;;;;14.17;3.30;;;6.40;99.90;;;;;;5051010;28;20187;-80
2022/02/22 01:20:33;;;;;;;10.80;3.33;;;6.40;99.90;;;;;;5049029;28;20450;-80
2022/02/22 01:22:59;;;;;;;19.43;4.30;;;6.30;99.90;;;;;;5048829;28;20985;-79
2022/02/22 01:25:27;;;;;;;18.23;3.23;;;6.30;99.90;;;;;;5047330;28;20469;-79
2022/02/22 01:27:54;;;;;;;18.23;4.43;;;6.30;99.90;;;;;;5047666;28;20429;-79
2022/02/22 01:30:20;;;;;;;17.40;5.40;;;6.20;99.90;;;;;;5047407;28;20425;-79
2022/02/22 01:32:45;;;;;;;15.83;4.23;;;6.20;99.90;;;;;;5047741;28;20754;-79
2022/02/22 01:35:11;;;;;;;9.43;3.70;;;6.10;99.90;;;;;;5046813;28;20438;-80
2022/02/22 01:37:37;;;;;;;14.30;4.40;;;6.00;99.90;;;;;;5046247;28;20207;-79
2022/02/22 01:40:05;;;;;;;11.10;3.80;;;6.00;99.90;;;;;;5046065;28;20437;-80
2022/02/22 01:42:30;;;;;;;12.43;3.33;;;5.90;99.90;;;;;;5045541;28;20191;-79
2022/02/22 01:44:56;;;;;;;10.60;3.60;;;5.90;99.90;;;;;;5043879;28;20884;-79
2022/02/22 01:47:23;;;;;;;24.77;5.77;;;5.90;99.90;;;;;;5045126;28;20198;-79
2022/02/22 01:49:48;;;;;;;11.73;4.40;;;5.80;99.90;;;;;;5044587;28;20421;-78
2022/02/22 01:52:15;;;;;;;13.10;4.90;;;5.80;99.90;;;;;;5043663;28;20468;-78
2022/02/22 01:54:41;;;;;;;13.70;4.50;;;5.90;99.90;;;;;;5043275;28;20184;-79
2022/02/22 01:57:08;;;;;;;20.40;4.80;;;6.00;99.90;;;;;;5043970;28;20491;-78
2022/02/22 01:59:34;;;;;;;14.00;3.30;;;6.00;99.90;;;;;;5043524;28;20429;-79
2022/02/22 02:02:00;;;;;;;13.60;4.00;;;6.10;99.90;;;;;;5043222;28;21053;-79
2022/02/22 02:04:29;;;;;;;16.17;5.40;;;6.20;99.90;;;;;;5043947;28;20422;-79
2022/02/22 02:06:59;;;;;;;19.13;3.70;;;6.20;99.90;;;;;;5042501;28;20443;-78
2022/02/22 02:09:25;;;;;;;16.47;4.40;;;6.20;99.90;;;;;;5042669;28;20659;-79
2022/02/22 02:11:55;;;;;;;14.70;5.20;;;6.20;99.90;;;;;;5042485;28;20413;-80
2022/02/22 02:17:05;;;;;;;22.50;4.63;;;6.10;99.90;;;;;;5091438;28;20468;-84
2022/02/22 02:19:31;;;;;;;15.10;3.80;;;6.10;99.90;;;;;;5077180;28;20449;-84
2022/02/22 02:22:00;;;;;;;17.03;4.80;;;6.10;99.90;;;;;;5077251;28;20179;-83
2022/02/22 02:24:27;;;;;;;15.70;5.47;;;5.90;99.90;;;;;;5077102;28;20690;-84
2022/02/22 02:26:54;;;;;;;17.27;3.30;;;6.00;99.90;;;;;;5075885;28;20428;-83
2022/02/22 02:29:23;;;;;;;15.43;3.97;;;5.90;99.90;;;;;;5077257;28;20416;-84
2022/02/22 02:31:51;;;;;;;21.23;5.03;;;5.90;99.90;;;;;;5095512;28;20412;-83
2022/02/22 02:34:19;;;;;;;10.87;3.83;;;5.90;99.90;;;;;;5076929;28;20792;-83
2022/02/22 02:36:45;;;;;;;11.43;4.50;;;5.90;99.90;;;;;;5076426;28;20419;-84
2022/02/22 02:39:12;;;;;;;13.97;4.40;;;5.80;99.90;;;;;;5095014;28;20412;-83
2022/02/22 02:41:42;;;;;;;15.70;4.00;;;5.80;99.90;;;;;;5076575;28;20518;-84
2022/02/22 02:44:10;;;;;;;14.37;3.90;;;5.70;99.90;;;;;;5095114;28;20435;-83
2022/02/22 02:46:36;;;;;;;12.43;4.93;;;5.70;99.90;;;;;;5094459;28;20491;-82
2022/02/22 02:49:03;;;;;;;13.67;4.10;;;5.70;99.90;;;;;;5076607;28;20473;-85
2022/02/22 02:51:28;;;;;;;14.27;3.90;;;5.70;99.90;;;;;;5076676;28;20415;-84
2022/02/22 02:53:55;;;;;;;16.80;5.07;;;5.60;99.90;;;;;;5076631;28;20542;-84
2022/02/22 02:56:24;;;;;;;7.43;3.30;;;5.60;99.90;;;;;;5094758;28;20220;-82
2022/02/22 02:58:56;;;;;;;12.47;4.03;;;5.50;99.90;;;;;;5076484;28;20419;-82
2022/02/22 03:01:22;;;;;;;12.40;4.00;;;5.50;99.90;;;;;;5076521;28;20440;-82
2022/02/22 03:03:48;;;;;;;10.60;3.20;;;5.60;99.90;;;;;;5075885;28;20475;-83
2022/02/22 03:06:14;;;;;;;19.23;5.33;;;5.50;99.90;;;;;;5075770;28;20463;-84
2022/02/22 03:08:39;;;;;;;17.13;3.70;;;5.60;99.90;;;;;;5094139;28;20177;-83
2022/02/22 03:11:05;;;;;;;19.07;3.53;;;5.50;99.90;;;;;;5076242;28;20748;-84
2022/02/22 03:13:31;;;;;;;15.33;3.83;;;5.50;99.90;;;;;;5076252;28;20176;-84
2022/02/22 03:15:56;;;;;;;11.13;3.27;;;5.40;99.90;;;;;;5075759;28;20309;-83
2022/02/22 03:18:22;;;;;;;11.83;3.63;;;5.50;99.90;;;;;;5075777;28;20195;-84
2022/02/22 03:20:47;;;;;;;16.43;3.47;;;5.50;99.90;;;;;;5076099;28;20177;-83
2022/02/22 03:23:13;;;;;;;21.10;3.90;;;5.40;99.90;;;;;;5093870;28;20266;-83
2022/02/22 03:25:39;;;;;;;9.50;3.10;;;5.30;99.90;;;;;;5075814;28;20579;-85
2022/02/22 03:28:08;;;;;;;19.93;4.87;;;5.30;99.90;;;;;;5093425;28;20173;-83
2022/02/22 03:30:34;;;;;;;10.63;4.00;;;5.20;99.90;;;;;;5075488;28;20226;-83
2022/02/22 03:33:00;;;;;;;13.17;3.83;;;5.20;99.90;;;;;;5076750;28;20428;-84
2022/02/22 03:35:26;;;;;;;15.63;3.93;;;5.20;99.90;;;;;;5077216;28;20462;-83
2022/02/22 03:37:52;;;;;;;11.40;3.63;;;5.20;99.90;;;;;;5094814;28;20879;-84
2022/02/22 03:40:18;;;;;;;17.57;4.83;;;5.20;99.90;;;;;;5077856;28;20459;-84
2022/02/22 03:42:44;;;;;;;10.90;3.70;;;5.20;99.90;;;;;;5077956;28;20187;-84
2022/02/22 03:45:11;;;;;;;13.00;3.10;;;5.20;99.90;;;;;;5077150;28;20515;-84
2022/02/22 03:47:38;;;;;;;12.53;4.93;;;5.30;99.90;;;;;;5078029;28;20433;-84
2022/02/22 03:50:08;;;;;;;15.97;4.10;;;5.30;99.90;;;;;;5078620;28;20416;-84
2022/02/22 03:52:34;;;;;;;12.57;3.30;;;5.30;99.90;;;;;;5079266;28;20425;-84
2022/02/22 03:55:00;;;;;;;20.73;3.77;;;5.30;99.90;;;;;;5077134;28;20446;-84
2022/02/22 03:57:26;;;;;;;19.93;3.67;;;5.30;99.90;;;;;;5074381;28;20944;-84
2022/02/22 03:59:51;;;;;;;17.43;3.53;;;5.30;99.90;;;;;;5074738;28;20193;-83
2022/02/22 04:02:17;;;;;;;9.23;4.00;;;5.20;99.90;;;;;;5074563;28;20187;-83
2022/02/22 04:04:43;;;;;;;17.60;3.90;;;5.20;99.90;;;;;;5074345;28;20678;-83
2022/02/22 04:07:10;;;;;;;12.50;3.83;;;5.10;99.90;;;;;;5091841;28;20230;-83
2022/02/22 04:09:36;;;;;;;13.57;3.67;;;5.10;99.90;;;;;;5074249;28;20460;-83
2022/02/22 04:12:02;;;;;;;11.83;5.70;;;5.10;99.90;;;;;;5074327;28;20679;-84
2022/02/22 04:14:28;;;;;;;14.77;3.60;;;4.90;99.90;;;;;;5074889;28;20436;-83
2022/02/22 04:16:53;;;;;;;23.97;6.30;;;5.00;99.90;;;;;;5075141;28;20436;-83
2022/02/22 04:19:19;;;;;;;12.60;4.27;;;5.00;99.90;;;;;;5075904;28;20444;-85
2022/02/22 04:21:45;;;;;;;14.40;3.90;;;5.00;99.90;;;;;;5075554;28;20176;-85
2022/02/22 04:24:10;;;;;;;11.33;3.70;;;4.90;99.90;;;;;;5076212;28;20584;-85
2022/02/22 04:26:36;;;;;;;9.00;3.43;;;4.90;99.90;;;;;;5075911;28;20206;-84
2022/02/22 04:29:02;;;;;;;15.07;4.07;;;5.00;99.90;;;;;;5075686;28;20232;-84
2022/02/22 04:31:28;;;;;;;20.60;3.73;;;5.00;99.90;;;;;;5076068;28;20182;-84
2022/02/22 04:33:54;;;;;;;10.70;3.30;;;5.00;99.90;;;;;;5093558;28;20271;-84
2022/02/22 04:36:19;;;;;;;17.20;4.50;;;5.00;99.90;;;;;;5093266;28;20576;-84
2022/02/22 04:38:45;;;;;;;9.83;3.50;;;5.10;99.90;;;;;;5075311;28;20665;-84
2022/02/22 04:41:11;;;;;;;16.80;4.43;;;5.10;99.90;;;;;;5075718;28;20180;-84
2022/02/22 04:43:37;;;;;;;13.20;3.90;;;5.10;99.90;;;;;;5075548;28;20279;-83
2022/02/22 04:46:02;;;;;;;12.63;3.63;;;5.00;99.90;;;;;;5075247;28;20515;-85
2022/02/22 04:48:28;;;;;;;13.40;4.40;;;5.00;99.90;;;;;;5075429;28;20210;-83
2022/02/22 04:50:54;;;;;;;14.00;3.50;;;5.00;99.90;;;;;;5079398;28;20194;-83
2022/02/22 04:53:19;;;;;;;16.80;3.73;;;5.00;99.90;;;;;;5079400;28;20269;-85
2022/02/22 04:55:45;;;;;;;12.80;3.40;;;4.90;99.90;;;;;;5079439;28;20203;-83
2022/02/22 04:58:10;;;;;;;14.37;3.50;;;4.90;99.90;;;;;;5079229;28;20206;-84
2022/02/22 05:00:36;;;;;;;21.67;4.70;;;4.90;99.90;;;;;;5079368;28;20187;-83
2022/02/22 05:03:02;;;;;;;16.93;3.60;;;5.00;99.90;;;;;;5079507;28;20662;-84
2022/02/22 05:05:28;;;;;;;10.63;3.27;;;4.90;99.90;;;;;;5078762;28;20223;-84
2022/02/22 05:07:53;;;;;;;12.93;3.63;;;4.90;99.90;;;;;;5078814;28;20426;-84
2022/02/22 05:10:19;;;;;;;11.07;3.40;;;4.90;99.90;;;;;;5079217;28;20182;-83
2022/02/22 05:12:45;;;;;;;24.47;4.60;;;4.90;99.90;;;;;;5079120;28;20182;-85
2022/02/22 05:15:11;;;;;;;14.33;4.73;;;4.80;99.90;;;;;;5079129;28;20217;-84
2022/02/22 05:17:37;;;;;;;9.00;3.93;;;4.80;99.90;;;;;;5079170;28;20670;-84
2022/02/22 05:20:07;;;;;;;13.97;3.50;;;4.90;99.90;;;;;;5078819;28;20503;-84
2022/02/22 05:22:44;;;;;;;18.80;5.13;;;4.80;99.90;;;;;;5097653;28;20413;-84
2022/02/22 05:25:11;;;;;;;11.07;3.13;;;4.80;99.90;;;;;;5097061;28;20524;-85
2022/02/22 05:27:37;;;;;;;13.70;3.10;;;4.70;99.90;;;;;;5078271;28;20940;-84
2022/02/22 05:30:04;;;;;;;8.30;2.90;;;4.70;99.90;;;;;;5079120;28;20420;-83
2022/02/22 05:32:30;;;;;;;10.73;4.03;;;4.80;99.90;;;;;;5079038;28;20184;-84
2022/02/22 05:34:56;;;;;;;12.30;3.93;;;4.70;99.90;;;;;;5078400;28;20448;-83
2022/02/22 05:37:22;;;;;;;12.87;3.90;;;4.70;99.90;;;;;;5078050;28;20488;-83
2022/02/22 05:39:48;;;;;;;14.27;3.67;;;4.70;99.90;;;;;;5078460;28;20424;-85
2022/02/22 05:42:13;;;;;;;20.67;4.03;;;4.70;99.90;;;;;;5078835;28;20554;-84
2022/02/22 05:44:39;;;;;;;20.77;4.10;;;4.70;99.90;;;;;;5096417;28;20522;-84
2022/02/22 05:47:05;;;;;;;7.57;2.80;;;4.60;99.90;;;;;;5077969;28;20590;-84
2022/02/22 05:49:30;;;;;;;16.40;2.90;;;4.50;99.90;;;;;;5077911;28;20178;-84
2022/02/22 05:51:56;;;;;;;10.93;2.47;;;4.50;99.90;;;;;;5096794;28;20421;-83
2022/02/22 05:54:22;;;;;;;17.47;5.40;;;4.50;99.90;;;;;;5078381;28;20213;-84
2022/02/22 05:56:48;;;;;;;12.00;4.30;;;4.30;99.90;;;;;;5096395;28;20592;-85
2022/02/22 05:59:14;;;;;;;16.47;3.83;;;4.40;99.90;;;;;;5078588;28;20424;-84
2022/02/22 06:01:43;;;;;;;20.30;3.47;;;4.40;99.90;;;;;;5076393;28;20235;-84
2022/02/22 06:04:10;;;;;;;14.03;3.13;;;4.30;99.90;;;;;;5077178;28;20429;-83
2022/02/22 06:06:36;;;;;;;12.97;3.60;;;4.30;99.90;;;;;;5076783;28;20469;-84
2022/02/22 06:09:01;;;;;;;18.27;4.50;;;4.40;99.90;;;;;;5076950;28;20427;-84
2022/02/22 06:11:27;;;;;;;9.77;3.33;;;4.30;99.90;;;;;;5076739;28;20465;-83
2022/02/22 06:13:52;;;;;;;18.83;3.77;;;4.30;99.90;;;;;;5076932;28;20184;-84
2022/02/22 06:16:18;;;;;;;19.33;4.90;;;4.40;99.90;;;;;;5076903;28;20282;-83
2022/02/22 06:18:43;;;;;;;12.70;3.47;;;4.30;99.90;;;;;;5076856;28;20182;-85
2022/02/22 06:21:09;;;;;;;28.10;4.73;;;4.40;99.90;;;;;;5076896;28;20189;-84
2022/02/22 06:23:34;;;;;;;8.13;2.80;;;4.40;99.90;;;;;;5077340;28;20211;-85
2022/02/22 06:26:00;;;;;;;14.60;4.70;;;4.40;99.90;;;;;;5076591;28;20263;-84
2022/02/22 06:28:26;;;;;;;12.00;4.43;;;4.40;99.90;;;;;;5076689;28;20193;-84
2022/02/22 06:30:51;;;;;;;12.60;2.83;;;4.40;99.90;;;;;;5076807;28;20220;-84
2022/02/22 06:33:17;;;;;;;18.87;3.27;;;4.40;99.90;;;;;;5076894;28;20553;-84
2022/02/22 06:35:42;;;;;;;9.30;4.23;;;4.30;99.90;;;;;;5076778;28;20211;-83
2022/02/22 06:38:08;;;;;;;10.97;3.43;;;4.40;99.90;;;;;;5076616;28;20185;-83
2022/02/22 06:40:36;;;;;;;12.30;4.23;;;4.30;99.90;;;;;;5094874;28;20182;-82
2022/02/22 06:43:02;;;;;;;13.00;3.40;;;4.40;99.90;;;;;;5076486;28;20271;-83
2022/02/22 06:45:28;;;;;;;15.73;4.93;;;4.50;99.90;;;;;;5076415;28;20878;-83
2022/02/22 06:47:55;;;;;;;17.47;4.87;;;4.40;99.90;;;;;;5076319;28;20418;-84
2022/02/22 06:50:22;;;;;;;14.37;4.80;;;4.40;99.90;;;;;;5094946;28;20903;-84
2022/02/22 06:52:47;;;;;;;20.27;5.17;;;4.50;99.90;;;;;;5076212;28;20421;-84
2022/02/22 06:55:14;;;;;;;16.10;4.97;;;4.50;99.90;;;;;;5076139;28;20468;-84
2022/02/22 06:57:41;;;;;;;16.00;4.10;;;4.50;99.90;;;;;;5075698;28;20611;-84
2022/02/22 07:00:09;;;;;;;20.63;5.20;;;4.60;99.90;;;;;;5076291;28;20480;-84
2022/02/22 07:02:36;;;;;;;13.10;3.97;;;4.50;99.90;;;;;;5076156;28;20417;-83
2022/02/22 07:05:02;;;;;;;9.00;3.77;;;4.60;99.90;;;;;;5076144;28;20460;-83
2022/02/22 07:07:28;;;;;;;11.20;3.90;;;4.60;99.90;;;;;;5075551;28;20490;-83
2022/02/22 07:09:55;;;;;;;14.97;3.60;;;4.60;99.90;;;;;;5076064;28;20425;-84
2022/02/22 07:12:20;;;;;;;13.00;5.43;;;4.60;99.90;;;;;;5093677;28;20180;-83
2022/02/22 07:14:46;;;;;;;19.80;4.63;;;4.60;99.90;;;;;;5075550;28;20950;-84
2022/02/22 07:17:12;;;;;;;13.27;5.07;;;4.70;99.90;;;;;;5075493;28;20176;-83
2022/02/22 07:19:37;;;;;;;14.07;4.07;;;4.70;99.90;;;;;;5075359;28;20184;-83
2022/02/22 07:22:04;;;;;;;11.83;3.40;;;4.80;99.90;;;;;;5075537;28;20255;-83
2022/02/22 07:24:29;;;;;;;14.50;4.10;;;4.90;99.90;;;;;;5093554;28;20179;-84
2022/02/22 07:26:55;;;;;;;16.83;4.97;;;4.90;99.90;;;;;;5093204;28;20824;-83
2022/02/22 07:29:21;;;;;;;8.40;3.10;;;5.00;99.90;;;;;;5075805;28;20194;-83
2022/02/22 07:31:47;;;;;;;12.57;3.00;;;5.20;99.90;;;;;;5093571;28;20228;-84
2022/02/22 07:34:12;;;;;;;15.30;3.50;;;5.40;99.90;;;;;;5093465;28;20176;-83
2022/02/22 07:36:39;;;;;;;14.30;4.97;;;5.60;99.90;;;;;;5075071;28;20238;-84
2022/02/22 07:39:05;;;;;;;14.10;3.53;;;5.70;99.90;;;;;;5075258;28;20181;-83
2022/02/22 07:41:31;;;;;;;12.47;2.93;;;5.70;99.90;;;;;;5075448;28;20944;-84
2022/02/22 07:43:57;;;;;;;10.73;3.67;;;5.90;99.90;;;;;;5075147;28;20595;-84
2022/02/22 07:46:23;;;;;;;10.47;3.43;;;6.00;99.90;;;;;;5074682;28;20528;-84
2022/02/22 07:48:49;;;;;;;14.73;3.10;;;6.10;99.90;;;;;;5093085;28;20177;-83
2022/02/22 07:51:16;;;;;;;14.10;3.40;;;6.10;99.90;;;;;;5074923;28;20477;-84
2022/02/22 07:53:43;;;;;;;7.80;3.07;;;6.20;99.90;;;;;;5093315;28;20226;-83
2022/02/22 07:56:10;;;;;;;11.70;3.40;;;6.20;99.90;;;;;;5074617;28;20452;-83
2022/02/22 07:58:36;;;;;;;12.00;3.20;;;6.20;99.90;;;;;;5074821;28;20944;-83
2022/02/22 08:01:02;;;;;;;8.10;4.03;;;6.30;99.90;;;;;;5092988;28;20411;-84
2022/02/22 08:03:28;;;;;;;12.00;3.00;;;6.40;99.90;;;;;;5074695;28;20995;-83
2022/02/22 08:05:53;;;;;;;9.70;3.60;;;6.50;99.90;;;;;;5071987;28;20467;-82
2022/02/22 08:08:19;;;;;;;13.73;4.50;;;6.50;99.90;;;;;;5072065;28;20666;-84
2022/02/22 08:10:44;;;;;;;19.80;3.77;;;6.60;99.90;;;;;;5092408;28;20191;-81
2022/02/22 08:13:11;;;;;;;14.53;5.10;;;6.60;99.90;;;;;;5074280;28;20220;-83
2022/02/22 08:15:36;;;;;;;8.20;2.57;;;6.60;99.90;;;;;;5074183;28;20217;-82
2022/02/22 08:18:02;;;;;;;10.00;3.90;;;6.60;99.90;;;;;;5117651;22;20498;-77
2022/02/22 08:20:28;;;;;;;16.23;3.90;;;6.80;99.90;;;;;;5091456;28;20187;-77
2022/02/22 08:22:54;;;;;;;12.83;3.80;;;6.90;99.90;;;;;;5090397;28;20422;-76
2022/02/22 08:25:20;;;;;;;8.70;4.20;;;6.90;99.90;;;;;;5090072;28;20213;-76
2022/02/22 08:27:46;;;;;;;10.27;3.40;;;7.00;99.90;;;;;;5090949;28;20202;-77
2022/02/22 08:30:13;;;;;;;13.07;3.83;;;7.20;99.90;;;;;;5091374;28;20481;-77
2022/02/22 08:32:39;;;;;;;13.50;4.73;;;7.40;99.90;;;;;;5093146;28;20938;-78
2022/02/22 08:35:05;;;;;;;7.33;2.80;;;7.70;99.90;;;;;;5092064;28;20405;-77
2022/02/22 08:37:31;;;;;;;11.70;3.43;;;7.80;99.90;;;;;;5089763;28;20465;-77
2022/02/22 08:39:57;;;;;;;11.93;3.43;;;7.80;99.90;;;;;;5091416;28;20828;-78
2022/02/22 08:42:23;;;;;;;12.90;4.10;;;7.70;99.90;;;;;;5090857;28;20210;-77
2022/02/22 08:44:49;;;;;;;5.97;3.07;;;7.90;99.90;;;;;;5091169;28;20459;-77
2022/02/22 08:47:15;;;;;;;9.17;3.90;;;8.10;99.90;;;;;;5091494;28;20541;-77
2022/02/22 08:49:42;;;;;;;7.83;4.40;;;8.30;99.90;;;;;;5091976;28;20671;-76
2022/02/22 08:52:07;;;;;;;13.77;4.60;;;8.30;99.90;;;;;;5090595;28;20408;-77
2022/02/22 08:54:33;;;;;;;13.20;5.67;;;8.50;99.90;;;;;;5090415;28;20502;-76
2022/02/22 08:56:59;;;;;;;10.43;4.40;;;8.60;99.90;;;;;;5090237;28;20206;-77
2022/02/22 08:59:25;;;;;;;12.70;4.60;;;8.80;99.90;;;;;;5091114;28;20171;-78
2022/02/22 09:01:51;;;;;;;14.33;5.87;;;8.70;99.90;;;;;;5091641;28;20179;-77
2022/02/22 09:04:17;;;;;;;9.67;5.47;;;8.60;99.90;;;;;;5092446;28;20175;-77
2022/02/22 09:06:42;;;;;;;13.37;4.80;;;8.60;99.90;;;;;;5091328;28;20474;-78
2022/02/22 09:09:08;;;;;;;16.90;5.57;;;8.50;99.90;;;;;;5092505;28;20175;-77
2022/02/22 09:11:34;;;;;;;12.70;5.43;;;8.50;99.90;;;;;;5092249;28;20178;-77
2022/02/22 09:13:59;;;;;;;12.43;5.80;;;8.50;99.90;;;;;;5091376;28;20221;-77
2022/02/22 09:16:25;;;;;;;14.17;5.67;;;8.70;99.90;;;;;;5091548;28;20293;-77
2022/02/22 09:18:53;;;;;;;12.47;5.60;;;8.80;99.90;;;;;;5091179;28;20561;-77
2022/02/22 09:21:19;;;;;;;14.50;6.30;;;8.80;99.90;;;;;;5091830;28;20187;-77
2022/02/22 09:23:45;;;;;;;17.30;5.63;;;8.80;99.90;;;;;;5092038;28;20424;-77
2022/02/22 09:26:11;;;;;;;9.40;5.97;;;8.80;99.90;;;;;;5091637;28;20843;-78
2022/02/22 09:28:37;;;;;;;12.70;5.50;;;8.90;99.90;;;;;;5091966;28;20190;-77
2022/02/22 09:31:03;;;;;;;9.47;5.07;;;8.70;99.90;;;;;;5091911;28;20417;-77
2022/02/22 09:33:28;;;;;;;11.87;5.97;;;8.80;99.90;;;;;;5092096;28;20177;-77
2022/02/22 09:35:54;;;;;;;12.50;6.40;;;8.90;99.90;;;;;;5093354;28;20298;-77
2022/02/22 09:38:20;;;;;;;9.50;4.43;;;8.90;99.90;;;;;;5095603;28;20182;-77
2022/02/22 09:40:46;;;;;;;15.03;6.73;;;9.00;99.90;;;;;;5095910;28;20951;-77
2022/02/22 09:43:12;;;;;;;15.17;6.20;;;9.00;99.90;;;;;;5095753;28;20191;-77
2022/02/22 09:45:38;;;;;;;12.63;5.33;;;9.10;99.90;;;;;;5095541;28;20470;-77
2022/02/22 09:48:04;;;;;;;11.23;5.37;;;9.20;99.90;;;;;;5095497;28;20934;-77
2022/02/22 09:50:32;;;;;;;8.47;5.00;;;9.20;99.90;;;;;;5095026;28;20503;-77
2022/02/22 09:52:58;;;;;;;8.67;4.80;;;9.40;99.90;;;;;;5095369;28;20507;-77
2022/02/22 09:55:24;;;;;;;7.57;4.47;;;9.40;99.90;;;;;;5095407;28;20428;-77
2022/02/22 09:57:51;;;;;;;8.80;4.23;;;9.50;99.90;;;;;;5094835;28;20420;-77
2022/02/22 10:00:23;;;;;;;11.90;3.80;;;9.60;99.90;;;;;;5094966;28;20470;-77
2022/02/22 10:02:49;;;;;;;9.83;4.63;;;9.80;99.90;;;;;;5095087;28;20935;-77
2022/02/22 10:05:23;;;;;;;14.10;4.00;;;9.80;99.90;;;;;;5095147;28;20467;-77
2022/02/22 10:08:00;;;;;;;8.83;3.47;;;10.00;99.90;;;;;;5095276;28;20444;-77
2022/02/22 10:10:41;;;;;;;8.40;3.67;;;10.00;99.90;;;;;;5093714;28;20459;-77
2022/02/22 10:13:17;;;;;;;11.80;3.77;;;10.30;99.90;;;;;;5093370;28;20792;-77
2022/02/22 10:15:44;;;;;;;7.00;3.10;;;10.20;99.90;;;;;;5093412;28;20416;-77
2022/02/22 10:18:11;;;;;;;7.77;3.00;;;10.30;99.90;;;;;;5093520;28;20969;-77
2022/02/22 10:20:38;;;;;;;6.57;3.03;;;10.20;99.90;;;;;;5093390;28;20430;-77
2022/02/22 10:23:06;;;;;;;8.63;3.13;;;10.20;99.90;;;;;;5093665;28;20424;-77
2022/02/22 10:25:32;;;;;;;5.60;2.83;;;10.50;99.90;;;;;;5093120;28;20865;-77
2022/02/22 10:28:00;;;;;;;8.20;3.00;;;10.50;99.90;;;;;;5095241;28;20409;-77
2022/02/22 10:30:28;;;;;;;6.93;2.60;;;10.50;99.90;;;;;;5094842;28;20427;-77
2022/02/22 10:32:55;;;;;;;11.70;3.70;;;10.50;99.90;;;;;;5095192;28;20473;-77
2022/02/22 10:35:31;;;;;;;7.10;3.10;;;10.60;99.90;;;;;;5095024;28;20429;-77
2022/02/22 10:37:57;;;;;;;16.23;3.30;;;10.50;99.90;;;;;;5094915;28;20420;-78
2022/02/22 10:40:30;;;;;;;10.53;4.17;;;10.60;99.90;;;;;;5094227;28;20428;-77
2022/02/22 10:42:57;;;;;;;6.03;3.13;;;10.60;99.90;;;;;;5094891;28;20224;-77
2022/02/22 10:45:24;;;;;;;6.50;3.10;;;10.60;99.90;;;;;;5095830;28;20460;-78
2022/02/22 10:47:50;;;;;;;10.47;3.50;;;10.70;99.90;;;;;;5093819;28;20432;-78
2022/02/22 10:50:24;;;;;;;7.90;2.87;;;10.50;99.90;;;;;;5094977;28;20424;-77
2022/02/22 10:52:50;;;;;;;10.83;3.10;;;10.40;99.90;;;;;;5094125;28;20454;-78
2022/02/22 10:55:16;;;;;;;7.83;3.40;;;10.20;99.90;;;;;;5095011;28;20427;-80
2022/02/22 10:57:41;;;;;;;9.43;3.30;;;10.40;99.90;;;;;;5093803;28;20487;-78
2022/02/22 11:00:08;;;;;;;12.33;3.20;;;10.40;99.90;;;;;;5094950;28;20678;-78
2022/02/22 11:02:34;;;;;;;18.63;3.50;;;10.40;99.90;;;;;;5094545;28;20201;-77
2022/02/22 11:05:01;;;;;;;15.90;3.80;;;10.50;99.90;;;;;;5094894;28;20467;-77
2022/02/22 11:07:29;;;;;;;12.90;3.50;;;10.50;99.90;;;;;;5089089;28;20450;-78
2022/02/22 11:09:56;;;;;;;11.80;3.73;;;10.50;99.90;;;;;;5091265;28;20432;-77
2022/02/22 11:12:25;;;;;;;9.47;3.30;;;10.30;99.90;;;;;;5084857;28;20419;-77
2022/02/22 11:14:51;;;;;;;9.53;2.87;;;10.10;99.90;;;;;;5098563;28;20439;-79
2022/02/22 11:17:19;;;;;;;8.30;2.97;;;10.10;99.90;;;;;;5093965;28;20490;-77
2022/02/22 11:19:45;;;;;;;12.53;3.40;;;10.00;99.90;;;;;;5093389;28;20481;-77
2022/02/22 11:22:14;;;;;;;9.13;2.97;;;10.00;99.90;;;;;;5093564;28;20428;-78
2022/02/22 11:24:54;;;;;;;11.90;3.27;;;10.00;99.90;;;;;;5094901;28;20872;-78
2022/02/22 11:27:29;;;;;;;15.27;3.60;;;10.00;99.90;;;;;;5093976;28;20843;-78
2022/02/22 11:30:26;;;;;;;6.07;3.30;;;10.00;99.90;;;;;;5111325;28;20427;-79
2022/02/22 11:33:16;;;;;;;9.60;3.87;;;10.20;99.90;;;;;;5094317;28;20428;-78
2022/02/22 11:35:52;;;;;;;13.93;3.40;;;10.20;99.90;;;;;;5093631;28;20412;-78
2022/02/22 11:38:18;;;;;;;9.90;3.27;;;10.30;99.90;;;;;;5093946;28;20519;-78
2022/02/22 11:40:48;;;;;;;9.90;3.70;;;10.40;99.90;;;;;;5093390;28;20451;-78
2022/02/22 11:43:17;;;;;;;10.90;3.50;;;10.40;99.90;;;;;;5093885;28;20954;-77
2022/02/22 11:45:46;;;;;;;7.90;2.40;;;10.40;99.90;;;;;;5093610;28;20518;-78
2022/02/22 11:48:22;;;;;;;9.93;2.90;;;10.40;99.90;;;;;;5093900;28;20915;-78
2022/02/22 11:50:51;;;;;;;13.27;3.80;;;10.30;99.90;;;;;;5093363;28;20800;-78
2022/02/22 11:53:22;;;;;;;9.43;3.33;;;10.40;99.90;;;;;;5093527;28;20458;-78
2022/02/22 11:55:49;;;;;;;9.33;2.67;;;10.50;99.90;;;;;;5093053;28;20443;-78
2022/02/22 11:58:22;;;;;;;9.70;3.07;;;10.70;99.90;;;;;;5093206;28;20425;-77
2022/02/22 12:00:50;;;;;;;12.63;3.60;;;10.90;99.90;;;;;;5092947;28;20427;-77
2022/02/22 12:03:19;;;;;;;11.20;3.03;;;11.00;99.90;;;;;;5093439;28;20412;-77
2022/02/22 12:05:50;;;;;;;8.70;2.63;;;10.90;99.90;;;;;;5092238;28;20467;-78
2022/02/22 12:08:28;;;;;;;12.50;3.60;;;10.90;99.90;;;;;;5110440;28;20416;-78
2022/02/22 12:10:56;;;;;;;9.90;3.17;;;10.90;99.90;;;;;;5093569;28;20424;-78
2022/02/22 12:13:24;;;;;;;8.33;2.90;;;10.70;99.90;;;;;;5092793;28;20439;-78
2022/02/22 12:15:54;;;;;;;16.10;3.87;;;10.70;99.90;;;;;;5091779;28;20460;-77
2022/02/22 12:18:25;;;;;;;9.47;3.27;;;10.70;99.90;;;;;;5091891;28;20443;-79
2022/02/22 12:20:53;;;;;;;6.90;2.70;;;10.80;99.90;;;;;;5092061;28;20426;-78
2022/02/22 12:23:27;;;;;;;9.03;3.40;;;10.80;99.90;;;;;;5093397;28;20508;-77
2022/02/22 12:25:56;;;;;;;12.60;4.13;;;10.80;99.90;;;;;;5093116;28;20507;-78
2022/02/22 12:28:25;;;;;;;7.80;2.60;;;10.70;99.90;;;;;;5093529;28;20519;-78
2022/02/22 12:30:56;;;;;;;8.60;3.10;;;10.60;99.90;;;;;;5093121;28;20413;-78
2022/02/22 12:33:33;;;;;;;9.77;2.43;;;10.60;99.90;;;;;;5093777;28;20473;-78
2022/02/22 12:36:15;;;;;;;12.73;4.27;;;10.60;99.90;;;;;;5092595;28;20443;-77
2022/02/22 12:38:41;;;;;;;10.53;4.30;;;10.50;99.90;;;;;;5092580;28;20474;-78
2022/02/22 12:41:15;;;;;;;8.90;2.93;;;10.20;99.90;;;;;;5093293;28;20420;-79
2022/02/22 12:43:51;;;;;;;5.47;2.40;;;9.90;99.90;;;;;;5093359;28;20428;-78
2022/02/22 12:46:19;;;;;;;11.30;3.53;;;9.70;99.90;;;;;;5092312;28;20495;-78
2022/02/22 12:48:45;;;;;;;8.57;4.00;;;9.70;99.90;;;;;;5092044;28;20416;-77